createdAt,value
2016-12-03T00:00:35.698Z,0
2016-12-03T00:01:35.755Z,0
2016-12-03T00:02:35.819Z,0
2016-12-03T00:03:35.871Z,0
2016-12-03T00:04:35.929Z,0
2016-12-03T00:05:35.993Z,0
2016-12-03T00:06:36.041Z,0
2016-12-03T00:07:36.122Z,0
2016-12-03T00:08:36.179Z,0
2016-12-03T00:09:36.219Z,0
2016-12-03T00:10:36.274Z,0
2016-12-03T00:11:36.334Z,0
2016-12-03T00:12:36.361Z,0
2016-12-03T00:13:36.450Z,0
2016-12-03T00:14:36.486Z,0
2016-12-03T00:15:36.543Z,0
2016-12-03T00:16:36.620Z,0
2016-12-03T00:17:36.664Z,0
2016-12-03T00:18:36.721Z,0
2016-12-03T00:19:36.797Z,0
2016-12-03T00:20:36.842Z,0
2016-12-03T00:21:36.895Z,0
2016-12-03T00:22:36.973Z,0
2016-12-03T00:23:36.998Z,0
2016-12-03T00:24:37.056Z,0
2016-12-03T00:25:37.123Z,0
2016-12-03T00:26:37.181Z,0
2016-12-03T00:27:37.221Z,0
2016-12-03T00:28:37.307Z,0
2016-12-03T00:29:37.328Z,0
2016-12-03T00:30:37.391Z,0
2016-12-03T00:31:37.442Z,0
2016-12-03T00:32:37.503Z,0
2016-12-03T00:33:37.563Z,0
2016-12-03T00:34:37.594Z,0
2016-12-03T00:35:37.677Z,0
2016-12-03T00:36:37.709Z,0
2016-12-03T00:37:38.013Z,0
2016-12-03T00:38:37.845Z,0
2016-12-03T00:39:37.881Z,0
2016-12-03T00:40:37.945Z,0
2016-12-03T00:41:38.006Z,0
2016-12-03T00:42:38.085Z,0
2016-12-03T00:43:38.150Z,0
2016-12-03T00:44:38.179Z,0
2016-12-03T00:45:38.257Z,0
2016-12-03T00:46:38.302Z,0
2016-12-03T00:47:38.356Z,0
2016-12-03T00:48:38.395Z,0
2016-12-03T00:49:38.464Z,0
2016-12-03T00:50:38.494Z,0
2016-12-03T00:51:38.577Z,0
2016-12-03T00:52:38.671Z,0
2016-12-03T00:53:38.684Z,0
2016-12-03T00:54:38.742Z,0
2016-12-03T00:55:38.822Z,0
2016-12-03T00:56:38.836Z,0
2016-12-03T00:57:38.920Z,0
2016-12-03T00:58:38.964Z,0
2016-12-03T00:59:39.044Z,0
2016-12-03T01:00:39.098Z,0
2016-12-03T01:01:39.141Z,0
2016-12-03T01:02:39.194Z,0
2016-12-03T01:03:39.589Z,0
2016-12-03T01:04:39.504Z,0
2016-12-03T01:05:39.575Z,0
2016-12-03T01:06:39.452Z,0
2016-12-03T01:07:39.450Z,0
2016-12-03T01:08:39.552Z,0
2016-12-03T01:09:39.592Z,0
2016-12-03T01:10:39.647Z,0
2016-12-03T01:11:39.711Z,0
2016-12-03T01:12:39.755Z,0
2016-12-03T01:13:39.832Z,0
2016-12-03T01:14:39.867Z,0
2016-12-03T01:15:39.930Z,0
2016-12-03T01:16:39.955Z,0
2016-12-03T01:17:40.059Z,0
2016-12-03T01:18:40.097Z,0
2016-12-03T01:19:40.150Z,0
2016-12-03T01:20:40.224Z,0
2016-12-03T01:21:40.278Z,0
2016-12-03T01:22:40.317Z,0
2016-12-03T01:23:40.415Z,0
2016-12-03T01:24:40.450Z,0
2016-12-03T01:25:40.500Z,0
2016-12-03T01:26:40.520Z,0
2016-12-03T01:27:40.620Z,0
2016-12-03T01:28:40.663Z,0
2016-12-03T01:29:40.736Z,0
2016-12-03T01:30:40.783Z,0
2016-12-03T01:31:40.816Z,0
2016-12-03T01:32:41.097Z,0
2016-12-03T01:33:40.929Z,0
2016-12-03T01:34:41.220Z,0
2016-12-03T01:35:41.061Z,0
2016-12-03T01:36:41.128Z,0
2016-12-03T01:37:41.168Z,0
2016-12-03T01:38:41.222Z,0
2016-12-03T01:39:41.279Z,0
2016-12-03T01:40:41.321Z,0
2016-12-03T01:41:41.394Z,0
2016-12-03T01:42:41.430Z,0
2016-12-03T01:43:41.499Z,0
2016-12-03T01:44:41.540Z,0
2016-12-03T01:45:41.615Z,0
2016-12-03T01:46:41.652Z,0
2016-12-03T01:47:41.703Z,0
2016-12-03T01:48:41.757Z,0
2016-12-03T01:49:41.834Z,0
2016-12-03T01:50:41.910Z,0
2016-12-03T01:51:41.945Z,0
2016-12-03T01:52:42.019Z,0
2016-12-03T01:53:42.072Z,0
2016-12-03T01:54:42.112Z,0
2016-12-03T01:55:42.226Z,0
2016-12-03T01:56:42.228Z,0
2016-12-03T01:57:42.331Z,0
2016-12-03T01:58:42.341Z,0
2016-12-03T01:59:42.610Z,0
2016-12-03T02:00:42.662Z,0
2016-12-03T02:01:42.762Z,0
2016-12-03T02:02:42.576Z,0
2016-12-03T02:03:42.629Z,0
2016-12-03T02:04:42.678Z,0
2016-12-03T02:05:42.733Z,0
2016-12-03T02:06:42.800Z,0
2016-12-03T02:07:42.842Z,0
2016-12-03T02:08:42.886Z,0
2016-12-03T02:09:42.949Z,0
2016-12-03T02:10:43.010Z,0
2016-12-03T02:11:43.065Z,0
2016-12-03T02:12:43.111Z,0
2016-12-03T02:13:43.180Z,0
2016-12-03T02:14:43.242Z,0
2016-12-03T02:15:43.302Z,0
2016-12-03T02:16:43.362Z,0
2016-12-03T02:17:43.433Z,0
2016-12-03T02:18:43.790Z,0
2016-12-03T02:19:43.510Z,0
2016-12-03T02:20:43.588Z,0
2016-12-03T02:21:43.690Z,0
2016-12-03T02:22:43.722Z,0
2016-12-03T02:23:43.762Z,0
2016-12-03T02:24:43.816Z,0
2016-12-03T02:25:43.878Z,0
2016-12-03T02:26:43.930Z,0
2016-12-03T02:27:44.183Z,0
2016-12-03T02:28:44.052Z,0
2016-12-03T02:29:44.276Z,0
2016-12-03T02:30:44.160Z,0
2016-12-03T02:31:44.201Z,0
2016-12-03T02:32:44.252Z,0
2016-12-03T02:33:44.289Z,0
2016-12-03T02:34:44.375Z,0
2016-12-03T02:35:44.436Z,0
2016-12-03T02:36:44.478Z,0
2016-12-03T02:37:44.532Z,0
2016-12-03T02:38:44.600Z,0
2016-12-03T02:39:44.661Z,0
2016-12-03T02:40:44.717Z,0
2016-12-03T02:41:44.756Z,0
2016-12-03T02:42:44.825Z,0
2016-12-03T02:43:44.879Z,0
2016-12-03T02:44:44.954Z,0
2016-12-03T02:45:44.974Z,0
2016-12-03T02:46:45.048Z,0
2016-12-03T02:47:45.100Z,0
2016-12-03T02:48:45.153Z,0
2016-12-03T02:49:45.240Z,0
2016-12-03T02:50:45.276Z,0
2016-12-03T02:51:45.326Z,0
2016-12-03T02:52:45.381Z,0
2016-12-03T02:53:45.445Z,0
2016-12-03T02:54:45.480Z,0
2016-12-03T02:55:45.733Z,0
2016-12-03T02:56:45.811Z,0
2016-12-03T02:57:45.894Z,0
2016-12-03T02:58:45.706Z,0
2016-12-03T02:59:45.786Z,0
2016-12-03T03:00:45.861Z,0
2016-12-03T03:01:45.899Z,0
2016-12-03T03:02:45.930Z,0
2016-12-03T03:03:46.020Z,0
2016-12-03T03:04:46.045Z,0
2016-12-03T03:05:46.122Z,0
2016-12-03T03:06:46.163Z,0
2016-12-03T03:07:46.241Z,0
2016-12-03T03:08:46.304Z,0
2016-12-03T03:09:46.334Z,0
2016-12-03T03:10:46.406Z,0
2016-12-03T03:11:46.439Z,0
2016-12-03T03:12:46.533Z,0
2016-12-03T03:13:46.547Z,0
2016-12-03T03:14:46.905Z,0
2016-12-03T03:15:46.682Z,0
2016-12-03T03:16:46.742Z,0
2016-12-03T03:17:46.806Z,0
2016-12-03T03:18:46.853Z,0
2016-12-03T03:19:46.904Z,0
2016-12-03T03:20:46.951Z,0
2016-12-03T03:21:47.005Z,0
2016-12-03T03:22:47.260Z,0
2016-12-03T03:23:47.330Z,0
2016-12-03T03:24:47.166Z,0
2016-12-03T03:25:47.255Z,0
2016-12-03T03:26:47.299Z,0
2016-12-03T03:27:47.386Z,0
2016-12-03T03:28:47.428Z,0
2016-12-03T03:29:47.447Z,0
2016-12-03T03:30:47.536Z,0
2016-12-03T03:31:47.574Z,0
2016-12-03T03:32:47.649Z,0
2016-12-03T03:33:47.722Z,0
2016-12-03T03:34:47.752Z,0
2016-12-03T03:35:47.813Z,0
2016-12-03T03:36:47.868Z,0
2016-12-03T03:37:47.930Z,0
2016-12-03T03:38:47.999Z,0
2016-12-03T03:39:48.041Z,0
2016-12-03T03:40:48.071Z,0
2016-12-03T03:41:48.131Z,0
2016-12-03T03:42:48.211Z,0
2016-12-03T03:43:48.248Z,0
2016-12-03T03:44:48.305Z,0
2016-12-03T03:45:48.370Z,0
2016-12-03T03:46:48.400Z,0
2016-12-03T03:47:48.496Z,0
2016-12-03T03:48:48.533Z,0
2016-12-03T03:49:48.589Z,0
2016-12-03T03:50:48.652Z,0
2016-12-03T03:51:48.700Z,0
2016-12-03T03:52:48.751Z,0
2016-12-03T03:53:48.826Z,0
2016-12-03T03:54:48.865Z,0
2016-12-03T03:55:48.948Z,0
2016-12-03T03:56:48.982Z,0
2016-12-03T03:57:49.063Z,0
2016-12-03T03:58:49.109Z,0
2016-12-03T03:59:49.159Z,0
2016-12-03T04:00:49.187Z,0
2016-12-03T04:01:49.279Z,0
2016-12-03T04:02:49.336Z,0
2016-12-03T04:03:49.382Z,0
2016-12-03T04:04:49.431Z,0
2016-12-03T04:05:49.502Z,0
2016-12-03T04:06:49.569Z,0
2016-12-03T04:07:49.594Z,0
2016-12-03T04:08:49.672Z,0
2016-12-03T04:09:49.717Z,0
2016-12-03T04:10:49.799Z,0
2016-12-03T04:11:49.858Z,0
2016-12-03T04:12:49.882Z,0
2016-12-03T04:13:49.933Z,0
2016-12-03T04:14:49.979Z,0
2016-12-03T04:15:50.063Z,0
2016-12-03T04:16:50.119Z,0
2016-12-03T04:17:50.163Z,0
2016-12-03T04:18:50.219Z,0
2016-12-03T04:19:50.258Z,0
2016-12-03T04:20:50.353Z,0
2016-12-03T04:21:50.370Z,0
2016-12-03T04:22:50.454Z,0
2016-12-03T04:23:50.517Z,0
2016-12-03T04:24:50.548Z,0
2016-12-03T04:25:50.624Z,0
2016-12-03T04:26:50.689Z,0
2016-12-03T04:27:50.724Z,0
2016-12-03T04:28:50.776Z,0
2016-12-03T04:29:50.847Z,0
2016-12-03T04:30:50.896Z,0
2016-12-03T04:31:50.952Z,0
2016-12-03T04:32:51.004Z,0
2016-12-03T04:33:51.056Z,0
2016-12-03T04:34:51.126Z,0
2016-12-03T04:35:51.184Z,0
2016-12-03T04:36:51.229Z,0
2016-12-03T04:37:51.276Z,0
2016-12-03T04:38:51.356Z,0
2016-12-03T04:39:51.417Z,0
2016-12-03T04:40:51.451Z,0
2016-12-03T04:41:51.534Z,0
2016-12-03T04:42:51.575Z,0
2016-12-03T04:43:51.622Z,0
2016-12-03T04:44:51.700Z,0
2016-12-03T04:45:51.749Z,0
2016-12-03T04:46:51.798Z,0
2016-12-03T04:47:51.859Z,0
2016-12-03T04:48:51.942Z,0
2016-12-03T04:49:51.996Z,0
2016-12-03T04:50:52.034Z,0
2016-12-03T04:51:52.078Z,0
2016-12-03T04:52:52.119Z,0
2016-12-03T04:53:52.182Z,0
2016-12-03T04:54:52.231Z,0
2016-12-03T04:55:52.294Z,0
2016-12-03T04:56:52.396Z,0
2016-12-03T04:57:52.423Z,0
2016-12-03T04:58:52.477Z,0
2016-12-03T04:59:52.544Z,0
2016-12-03T05:00:52.580Z,0
2016-12-03T05:01:52.639Z,0
2016-12-03T05:02:52.696Z,0
2016-12-03T05:03:52.751Z,0
2016-12-03T05:04:52.806Z,0
2016-12-03T05:05:52.890Z,0
2016-12-03T05:06:52.915Z,0
2016-12-03T05:07:52.977Z,0
2016-12-03T05:08:53.012Z,0
2016-12-03T05:09:53.087Z,0
2016-12-03T05:10:53.146Z,0
2016-12-03T05:11:53.199Z,0
2016-12-03T05:12:53.250Z,0
2016-12-03T05:13:53.320Z,0
2016-12-03T05:14:53.397Z,0
2016-12-03T05:15:53.436Z,0
2016-12-03T05:16:53.474Z,0
2016-12-03T05:17:53.547Z,0
2016-12-03T05:18:53.631Z,0
2016-12-03T05:19:53.634Z,0
2016-12-03T05:20:53.714Z,0
2016-12-03T05:21:53.768Z,0
2016-12-03T05:22:53.823Z,0
2016-12-03T05:23:53.895Z,0
2016-12-03T05:24:54.238Z,0
2016-12-03T05:25:53.980Z,0
2016-12-03T05:26:54.045Z,0
2016-12-03T05:27:54.104Z,0
2016-12-03T05:28:54.187Z,0
2016-12-03T05:29:54.228Z,0
2016-12-03T05:30:54.255Z,0
2016-12-03T05:31:54.338Z,0
2016-12-03T05:32:54.390Z,0
2016-12-03T05:33:54.451Z,0
2016-12-03T05:34:54.519Z,0
2016-12-03T05:35:54.548Z,0
2016-12-03T05:36:54.623Z,0
2016-12-03T05:37:54.662Z,0
2016-12-03T05:38:54.738Z,0
2016-12-03T05:39:54.775Z,0
2016-12-03T05:40:54.820Z,0
2016-12-03T05:41:54.889Z,0
2016-12-03T05:42:54.948Z,0
2016-12-03T05:43:55.009Z,0
2016-12-03T05:44:55.055Z,0
2016-12-03T05:45:55.104Z,0
2016-12-03T05:46:55.166Z,0
2016-12-03T05:47:55.225Z,0
2016-12-03T05:48:55.286Z,0
2016-12-03T05:49:55.337Z,0
2016-12-03T05:50:55.388Z,0
2016-12-03T05:51:55.446Z,0
2016-12-03T05:52:55.517Z,0
2016-12-03T05:53:55.582Z,0
2016-12-03T05:54:55.648Z,0
2016-12-03T05:55:55.667Z,0
2016-12-03T05:56:55.725Z,0
2016-12-03T05:57:55.804Z,0
2016-12-03T05:58:55.836Z,0
2016-12-03T05:59:55.884Z,0
2016-12-03T06:00:55.982Z,0
2016-12-03T06:01:56.035Z,0
2016-12-03T06:02:56.065Z,0
2016-12-03T06:03:56.104Z,0
2016-12-03T06:04:56.168Z,0
2016-12-03T06:05:56.229Z,0
2016-12-03T06:06:56.311Z,0
2016-12-03T06:07:56.343Z,0
2016-12-03T06:08:56.412Z,0
2016-12-03T06:09:56.475Z,0
2016-12-03T06:10:56.531Z,0
2016-12-03T06:11:56.615Z,0
2016-12-03T06:12:56.640Z,0
2016-12-03T06:13:56.691Z,0
2016-12-03T06:14:56.762Z,0
2016-12-03T06:15:56.783Z,0
2016-12-03T06:16:56.848Z,0
2016-12-03T06:17:56.924Z,0
2016-12-03T06:18:56.979Z,0
2016-12-03T06:19:57.033Z,0
2016-12-03T06:20:57.090Z,0
2016-12-03T06:21:57.124Z,0
2016-12-03T06:22:57.188Z,0
2016-12-03T06:23:57.259Z,0
2016-12-03T06:24:57.296Z,0
2016-12-03T06:25:57.357Z,0
2016-12-03T06:26:57.743Z,0
2016-12-03T06:27:57.811Z,0
2016-12-03T06:28:57.540Z,0
2016-12-03T06:29:57.582Z,0
2016-12-03T06:30:57.617Z,0
2016-12-03T06:31:57.702Z,0
2016-12-03T06:32:57.729Z,0
2016-12-03T06:33:57.831Z,0
2016-12-03T06:34:57.867Z,0
2016-12-03T06:35:57.922Z,0
2016-12-03T06:36:57.959Z,0
2016-12-03T06:37:58.051Z,0
2016-12-03T06:38:58.109Z,0
2016-12-03T06:39:58.137Z,0
2016-12-03T06:40:58.190Z,0
2016-12-03T06:41:58.267Z,0
2016-12-03T06:42:58.323Z,0
2016-12-03T06:43:58.350Z,0
2016-12-03T06:44:58.439Z,0
2016-12-03T06:45:58.506Z,0
2016-12-03T06:46:58.548Z,0
2016-12-03T06:47:58.587Z,0
2016-12-03T06:48:58.648Z,0
2016-12-03T06:49:58.716Z,0
2016-12-03T06:50:58.769Z,0
2016-12-03T06:51:58.831Z,0
2016-12-03T06:52:58.885Z,0
2016-12-03T06:53:58.918Z,0
2016-12-03T06:54:58.993Z,0
2016-12-03T06:55:59.047Z,0
2016-12-03T06:56:59.086Z,0
2016-12-03T06:57:59.165Z,0
2016-12-03T06:58:59.196Z,0
2016-12-03T06:59:59.245Z,0
2016-12-03T07:00:59.305Z,0
2016-12-03T07:01:59.663Z,0
2016-12-03T07:02:59.440Z,0
2016-12-03T07:03:59.477Z,0
2016-12-03T07:04:59.549Z,0
2016-12-03T07:05:59.610Z,0
2016-12-03T07:06:59.653Z,0
2016-12-03T07:07:59.727Z,5
2016-12-03T07:08:59.761Z,5
2016-12-03T07:09:59.811Z,5
2016-12-03T07:10:59.877Z,5
2016-12-03T07:11:59.931Z,5
2016-12-03T07:12:59.982Z,5
2016-12-03T07:14:00.061Z,5
2016-12-03T07:15:00.110Z,5
2016-12-03T07:16:00.178Z,5
2016-12-03T07:17:00.224Z,5
2016-12-03T07:18:00.303Z,5
2016-12-03T07:19:00.335Z,5
2016-12-03T07:20:00.380Z,5
2016-12-03T07:21:00.444Z,5
2016-12-03T07:22:00.509Z,5
2016-12-03T07:23:00.567Z,5
2016-12-03T07:24:00.598Z,5
2016-12-03T07:25:00.667Z,5
2016-12-03T07:26:00.721Z,5
2016-12-03T07:27:00.800Z,10
2016-12-03T07:28:00.839Z,10
2016-12-03T07:29:00.894Z,10
2016-12-03T07:30:00.946Z,10
2016-12-03T07:31:00.981Z,10
2016-12-03T07:32:01.055Z,10
2016-12-03T07:33:01.113Z,10
2016-12-03T07:34:01.177Z,10
2016-12-03T07:35:01.264Z,10
2016-12-03T07:36:01.302Z,10
2016-12-03T07:37:01.353Z,10
2016-12-03T07:38:01.407Z,10
2016-12-03T07:39:01.463Z,10
2016-12-03T07:40:01.502Z,10
2016-12-03T07:41:01.559Z,10
2016-12-03T07:42:01.600Z,10
2016-12-03T07:43:01.690Z,10
2016-12-03T07:44:01.710Z,10
2016-12-03T07:45:01.794Z,10
2016-12-03T07:46:02.167Z,10
2016-12-03T07:47:01.927Z,10
2016-12-03T07:48:01.962Z,10
2016-12-03T07:49:02.026Z,10
2016-12-03T07:50:02.070Z,10
2016-12-03T07:51:02.125Z,10
2016-12-03T07:52:02.215Z,10
2016-12-03T07:53:02.245Z,15
2016-12-03T07:54:02.309Z,15
2016-12-03T07:55:02.369Z,15
2016-12-03T07:56:02.409Z,15
2016-12-03T07:57:02.443Z,15
2016-12-03T07:58:02.514Z,15
2016-12-03T07:59:02.590Z,15
2016-12-03T08:00:02.631Z,15
2016-12-03T08:01:02.683Z,15
2016-12-03T08:02:02.739Z,15
2016-12-03T08:03:02.803Z,15
2016-12-03T08:04:02.860Z,15
2016-12-03T08:05:02.920Z,15
2016-12-03T08:06:02.974Z,15
2016-12-03T08:07:03.034Z,15
2016-12-03T08:08:03.079Z,15
2016-12-03T08:09:03.472Z,15
2016-12-03T08:10:03.188Z,15
2016-12-03T08:11:03.269Z,15
2016-12-03T08:12:03.323Z,15
2016-12-03T08:13:03.362Z,15
2016-12-03T08:14:03.446Z,15
2016-12-03T08:15:03.487Z,15
2016-12-03T08:16:03.858Z,15
2016-12-03T08:17:03.593Z,15
2016-12-03T08:18:03.946Z,15
2016-12-03T08:19:03.734Z,15
2016-12-03T08:20:03.778Z,15
2016-12-03T08:21:03.827Z,15
2016-12-03T08:22:03.877Z,20
2016-12-03T08:23:03.931Z,20
2016-12-03T08:24:04.015Z,20
2016-12-03T08:25:04.053Z,20
2016-12-03T08:26:04.099Z,20
2016-12-03T08:27:04.151Z,20
2016-12-03T08:28:04.527Z,20
2016-12-03T08:29:04.599Z,20
2016-12-03T08:30:04.321Z,20
2016-12-03T08:31:04.710Z,20
2016-12-03T08:32:04.443Z,20
2016-12-03T08:33:04.526Z,20
2016-12-03T08:34:04.570Z,20
2016-12-03T08:35:04.618Z,20
2016-12-03T08:36:04.688Z,20
2016-12-03T08:37:04.737Z,20
2016-12-03T08:38:04.781Z,20
2016-12-03T08:39:04.824Z,20
2016-12-03T08:40:04.898Z,20
2016-12-03T08:41:05.266Z,20
2016-12-03T08:42:05.017Z,20
2016-12-03T08:43:05.070Z,20
2016-12-03T08:44:05.128Z,20
2016-12-03T08:45:05.183Z,20
2016-12-03T08:46:05.219Z,20
2016-12-03T08:47:05.326Z,20
2016-12-03T08:48:05.331Z,20
2016-12-03T08:49:05.402Z,20
2016-12-03T08:50:05.474Z,20
2016-12-03T08:51:05.517Z,20
2016-12-03T08:52:05.581Z,20
2016-12-03T08:53:05.616Z,20
2016-12-03T08:54:05.711Z,20
2016-12-03T08:55:05.760Z,20
2016-12-03T08:56:05.791Z,20
2016-12-03T08:57:05.863Z,20
2016-12-03T08:58:05.901Z,20
2016-12-03T08:59:05.974Z,20
2016-12-03T09:00:06.033Z,20
2016-12-03T09:01:06.100Z,20
2016-12-03T09:02:06.161Z,20
2016-12-03T09:03:06.229Z,20
2016-12-03T09:04:06.264Z,20
2016-12-03T09:05:06.323Z,25
2016-12-03T09:06:06.372Z,25
2016-12-03T09:07:06.762Z,25
2016-12-03T09:08:06.467Z,25
2016-12-03T09:09:06.550Z,25
2016-12-03T09:10:06.610Z,25
2016-12-03T09:11:06.650Z,25
2016-12-03T09:12:06.713Z,25
2016-12-03T09:13:06.761Z,25
2016-12-03T09:14:06.813Z,25
2016-12-03T09:15:06.915Z,25
2016-12-03T09:16:06.956Z,25
2016-12-03T09:17:07.012Z,25
2016-12-03T09:18:07.048Z,25
2016-12-03T09:19:07.105Z,25
2016-12-03T09:20:07.197Z,25
2016-12-03T09:21:07.244Z,25
2016-12-03T09:22:07.288Z,25
2016-12-03T09:23:07.366Z,25
2016-12-03T09:24:07.382Z,25
2016-12-03T09:25:07.479Z,25
2016-12-03T09:26:07.506Z,25
2016-12-03T09:27:07.575Z,25
2016-12-03T09:28:07.653Z,25
2016-12-03T09:29:07.700Z,25
2016-12-03T09:30:07.733Z,25
2016-12-03T09:31:07.807Z,25
2016-12-03T09:32:07.862Z,25
2016-12-03T09:33:07.885Z,25
2016-12-03T09:34:07.950Z,25
2016-12-03T09:35:08.022Z,25
2016-12-03T09:36:08.090Z,25
2016-12-03T09:37:08.145Z,25
2016-12-03T09:38:08.211Z,25
2016-12-03T09:39:08.250Z,25
2016-12-03T09:40:08.316Z,25
2016-12-03T09:41:08.341Z,25
2016-12-03T09:42:08.423Z,25
2016-12-03T09:43:08.463Z,25
2016-12-03T09:44:08.524Z,25
2016-12-03T09:45:08.607Z,25
2016-12-03T09:46:08.652Z,25
2016-12-03T09:47:08.693Z,25
2016-12-03T09:48:08.782Z,25
2016-12-03T09:49:08.841Z,25
2016-12-03T09:50:08.868Z,25
2016-12-03T09:51:09.246Z,25
2016-12-03T09:52:08.994Z,25
2016-12-03T09:53:09.060Z,30
2016-12-03T09:54:09.093Z,30
2016-12-03T09:55:09.132Z,30
2016-12-03T09:56:09.223Z,30
2016-12-03T09:57:09.281Z,30
2016-12-03T09:58:09.344Z,30
2016-12-03T09:59:09.417Z,30
2016-12-03T10:00:09.445Z,30
2016-12-03T10:01:09.495Z,30
2016-12-03T10:02:09.564Z,30
2016-12-03T10:03:09.616Z,30
2016-12-03T10:04:09.669Z,30
2016-12-03T10:05:09.750Z,30
2016-12-03T10:06:09.792Z,30
2016-12-03T10:07:09.826Z,30
2016-12-03T10:08:09.894Z,30
2016-12-03T10:09:09.958Z,30
2016-12-03T10:10:10.005Z,30
2016-12-03T10:11:10.059Z,30
2016-12-03T10:12:10.151Z,30
2016-12-03T10:13:10.177Z,30
2016-12-03T10:14:10.246Z,30
2016-12-03T10:15:10.318Z,30
2016-12-03T10:16:10.354Z,30
2016-12-03T10:17:10.416Z,30
2016-12-03T10:18:10.470Z,30
2016-12-03T10:19:10.535Z,30
2016-12-03T10:20:10.595Z,30
2016-12-03T10:21:10.636Z,30
2016-12-03T10:22:10.692Z,30
2016-12-03T10:23:10.784Z,30
2016-12-03T10:24:10.831Z,30
2016-12-03T10:25:10.879Z,30
2016-12-03T10:26:10.919Z,30
2016-12-03T10:27:10.987Z,30
2016-12-03T10:28:11.028Z,30
2016-12-03T10:29:11.074Z,30
2016-12-03T10:30:11.172Z,30
2016-12-03T10:31:11.207Z,30
2016-12-03T10:32:11.277Z,30
2016-12-03T10:33:11.335Z,30
2016-12-03T10:34:11.382Z,30
2016-12-03T10:35:11.431Z,30
2016-12-03T10:36:11.480Z,30
2016-12-03T10:37:11.552Z,30
2016-12-03T10:38:11.956Z,30
2016-12-03T10:39:11.648Z,30
2016-12-03T10:40:11.713Z,30
2016-12-03T10:41:11.788Z,30
2016-12-03T10:42:11.830Z,30
2016-12-03T10:43:11.924Z,30
2016-12-03T10:44:11.938Z,30
2016-12-03T10:45:12.010Z,30
2016-12-03T10:46:12.063Z,35
2016-12-03T10:47:12.446Z,30
2016-12-03T10:48:12.188Z,30
2016-12-03T10:49:12.252Z,30
2016-12-03T10:50:12.327Z,30
2016-12-03T10:51:12.349Z,30
2016-12-03T10:52:12.726Z,30
2016-12-03T10:53:12.462Z,30
2016-12-03T10:54:12.555Z,30
2016-12-03T10:55:12.616Z,30
2016-12-03T10:56:12.647Z,30
2016-12-03T10:57:12.732Z,30
2016-12-03T10:58:12.755Z,30
2016-12-03T10:59:12.805Z,30
2016-12-03T11:00:12.871Z,30
2016-12-03T11:01:12.936Z,30
2016-12-03T11:02:12.982Z,30
2016-12-03T11:03:13.069Z,30
2016-12-03T11:04:13.115Z,30
2016-12-03T11:05:13.159Z,30
2016-12-03T11:06:13.203Z,30
2016-12-03T11:07:13.283Z,30
2016-12-03T11:08:13.335Z,30
2016-12-03T11:09:13.411Z,35
2016-12-03T11:10:13.444Z,35
2016-12-03T11:11:13.503Z,35
2016-12-03T11:12:13.553Z,35
2016-12-03T11:13:13.608Z,35
2016-12-03T11:14:13.656Z,35
2016-12-03T11:15:13.728Z,35
2016-12-03T11:16:13.812Z,35
2016-12-03T11:17:13.855Z,35
2016-12-03T11:18:13.958Z,35
2016-12-03T11:19:13.958Z,35
2016-12-03T11:20:13.992Z,35
2016-12-03T11:21:14.060Z,35
2016-12-03T11:22:14.132Z,35
2016-12-03T11:23:14.215Z,35
2016-12-03T11:24:14.239Z,35
2016-12-03T11:25:14.302Z,35
2016-12-03T11:26:14.370Z,35
2016-12-03T11:27:14.405Z,35
2016-12-03T11:28:14.496Z,35
2016-12-03T11:29:14.551Z,35
2016-12-03T11:30:14.582Z,35
2016-12-03T11:31:14.691Z,35
2016-12-03T11:32:14.685Z,35
2016-12-03T11:33:14.760Z,35
2016-12-03T11:34:14.810Z,35
2016-12-03T11:35:15.195Z,35
2016-12-03T11:36:14.935Z,35
2016-12-03T11:37:15.007Z,35
2016-12-03T11:38:15.037Z,35
2016-12-03T11:39:15.102Z,35
2016-12-03T11:40:15.167Z,35
2016-12-03T11:41:15.216Z,35
2016-12-03T11:42:15.286Z,35
2016-12-03T11:43:15.335Z,35
2016-12-03T11:44:15.361Z,35
2016-12-03T11:45:15.429Z,35
2016-12-03T11:46:15.491Z,35
2016-12-03T11:47:15.553Z,35
2016-12-03T11:48:15.601Z,35
2016-12-03T11:49:15.664Z,35
2016-12-03T11:50:15.739Z,35
2016-12-03T11:51:15.794Z,35
2016-12-03T11:52:15.844Z,35
2016-12-03T11:53:15.883Z,35
2016-12-03T11:54:15.955Z,35
2016-12-03T11:55:16.002Z,40
2016-12-03T11:56:16.060Z,40
2016-12-03T11:57:16.131Z,40
2016-12-03T11:58:16.187Z,40
2016-12-03T11:59:16.256Z,40
2016-12-03T12:00:16.323Z,40
2016-12-03T12:01:16.349Z,40
2016-12-03T12:02:16.441Z,40
2016-12-03T12:03:16.456Z,40
2016-12-03T12:04:16.519Z,40
2016-12-03T12:05:16.605Z,40
2016-12-03T12:06:16.669Z,40
2016-12-03T12:07:16.705Z,40
2016-12-03T12:08:16.751Z,40
2016-12-03T12:09:16.814Z,40
2016-12-03T12:10:16.880Z,40
2016-12-03T12:11:16.952Z,40
2016-12-03T12:12:17.011Z,40
2016-12-03T12:13:17.063Z,40
2016-12-03T12:14:17.112Z,40
2016-12-03T12:15:17.462Z,40
2016-12-03T12:16:17.229Z,40
2016-12-03T12:17:17.264Z,40
2016-12-03T12:18:17.337Z,40
2016-12-03T12:19:17.413Z,40
2016-12-03T12:20:17.769Z,40
2016-12-03T12:21:17.501Z,40
2016-12-03T12:22:17.557Z,40
2016-12-03T12:23:17.611Z,40
2016-12-03T12:24:17.655Z,40
2016-12-03T12:25:17.730Z,40
2016-12-03T12:26:17.801Z,40
2016-12-03T12:27:17.861Z,40
2016-12-03T12:28:17.898Z,40
2016-12-03T12:29:17.965Z,40
2016-12-03T12:30:18.019Z,40
2016-12-03T12:31:18.078Z,40
2016-12-03T12:32:18.138Z,40
2016-12-03T12:33:18.188Z,40
2016-12-03T12:34:18.252Z,40
2016-12-03T12:35:18.318Z,40
2016-12-03T12:36:18.362Z,40
2016-12-03T12:37:18.735Z,40
2016-12-03T12:38:18.504Z,40
2016-12-03T12:39:18.568Z,40
2016-12-03T12:40:18.605Z,40
2016-12-03T12:41:18.669Z,40
2016-12-03T12:42:18.728Z,40
2016-12-03T12:43:18.766Z,40
2016-12-03T12:44:18.845Z,40
2016-12-03T12:45:18.884Z,35
2016-12-03T12:46:18.961Z,35
2016-12-03T12:47:19.015Z,35
2016-12-03T12:48:19.085Z,35
2016-12-03T12:49:19.125Z,35
2016-12-03T12:50:19.157Z,35
2016-12-03T12:51:19.230Z,35
2016-12-03T12:52:19.270Z,35
2016-12-03T12:53:19.377Z,35
2016-12-03T12:54:19.404Z,35
2016-12-03T12:55:19.464Z,35
2016-12-03T12:56:19.532Z,35
2016-12-03T12:57:19.585Z,35
2016-12-03T12:58:19.645Z,35
2016-12-03T12:59:19.684Z,35
2016-12-03T13:00:19.738Z,35
2016-12-03T13:01:19.831Z,35
2016-12-03T13:02:19.855Z,35
2016-12-03T13:03:19.927Z,30
2016-12-03T13:04:19.966Z,30
2016-12-03T13:05:20.025Z,30
2016-12-03T13:06:20.133Z,30
2016-12-03T13:07:20.153Z,30
2016-12-03T13:08:20.230Z,30
2016-12-03T13:09:20.241Z,30
2016-12-03T13:10:20.319Z,30
2016-12-03T13:11:20.377Z,30
2016-12-03T13:12:20.461Z,30
2016-12-03T13:13:20.511Z,30
2016-12-03T13:14:20.527Z,30
2016-12-03T13:15:20.616Z,30
2016-12-03T13:16:20.678Z,30
2016-12-03T13:17:20.703Z,30
2016-12-03T13:18:20.769Z,30
2016-12-03T13:19:20.847Z,30
2016-12-03T13:20:21.202Z,30
2016-12-03T13:21:20.927Z,30
2016-12-03T13:22:21.028Z,30
2016-12-03T13:23:21.063Z,30
2016-12-03T13:24:21.132Z,30
2016-12-03T13:25:21.196Z,30
2016-12-03T13:26:21.239Z,25
2016-12-03T13:27:21.301Z,25
2016-12-03T13:28:21.354Z,25
2016-12-03T13:29:21.382Z,25
2016-12-03T13:30:21.454Z,25
2016-12-03T13:31:21.525Z,25
2016-12-03T13:32:21.565Z,25
2016-12-03T13:33:21.646Z,25
2016-12-03T13:34:21.720Z,25
2016-12-03T13:35:21.768Z,25
2016-12-03T13:36:21.808Z,25
2016-12-03T13:37:21.843Z,25
2016-12-03T13:38:21.895Z,25
2016-12-03T13:39:21.980Z,25
2016-12-03T13:40:22.025Z,25
2016-12-03T13:41:22.112Z,25
2016-12-03T13:42:22.149Z,25
2016-12-03T13:43:22.187Z,25
2016-12-03T13:44:22.264Z,25
2016-12-03T13:45:22.312Z,25
2016-12-03T13:46:22.401Z,25
2016-12-03T13:47:22.732Z,25
2016-12-03T13:48:22.491Z,25
2016-12-03T13:49:22.539Z,25
2016-12-03T13:50:22.602Z,25
2016-12-03T13:51:22.960Z,25
2016-12-03T13:52:22.716Z,25
2016-12-03T13:53:22.748Z,25
2016-12-03T13:54:22.833Z,20
2016-12-03T13:55:22.882Z,20
2016-12-03T13:56:22.965Z,20
2016-12-03T13:57:22.997Z,20
2016-12-03T13:58:23.031Z,15
2016-12-03T13:59:23.112Z,10
2016-12-03T14:00:23.162Z,5
2016-12-03T14:01:23.418Z,5
2016-12-03T14:02:23.279Z,5
2016-12-03T14:03:23.338Z,5
2016-12-03T14:04:23.388Z,5
2016-12-03T14:05:23.445Z,5
2016-12-03T14:06:23.521Z,5
2016-12-03T14:07:23.863Z,5
2016-12-03T14:08:23.624Z,5
2016-12-03T14:09:23.673Z,5
2016-12-03T14:10:23.746Z,5
2016-12-03T14:11:23.801Z,5
2016-12-03T14:12:23.849Z,5
2016-12-03T14:13:23.918Z,5
2016-12-03T14:14:23.996Z,5
2016-12-03T14:15:24.027Z,5
2016-12-03T14:16:24.097Z,5
2016-12-03T14:17:24.147Z,5
2016-12-03T14:18:24.203Z,5
2016-12-03T14:19:24.239Z,5
2016-12-03T14:20:24.295Z,5
2016-12-03T14:21:24.359Z,5
2016-12-03T14:22:24.411Z,5
2016-12-03T14:23:24.475Z,5
2016-12-03T14:24:24.548Z,5
2016-12-03T14:25:24.598Z,5
2016-12-03T14:26:24.627Z,5
2016-12-03T14:27:24.692Z,5
2016-12-03T14:28:24.781Z,5
2016-12-03T14:29:24.823Z,5
2016-12-03T14:30:24.857Z,5
2016-12-03T14:31:25.137Z,5
2016-12-03T14:32:24.974Z,5
2016-12-03T14:33:25.037Z,5